createdAt,value
2017-04-29T00:00:39.514Z,9.23
2017-04-29T00:03:09.507Z,9.32
2017-04-29T00:05:38.575Z,7.05
2017-04-29T00:08:08.406Z,6.07
2017-04-29T00:10:37.827Z,5.87
2017-04-29T00:13:06.906Z,6.32
2017-04-29T00:15:36.220Z,7.60
2017-04-29T00:18:06.325Z,8.02
2017-04-29T00:20:39.163Z,9.08
2017-04-29T00:23:09.712Z,7.52
2017-04-29T00:25:39.857Z,8.10
2017-04-29T00:28:09.141Z,7.67
2017-04-29T00:30:38.288Z,8.13
2017-04-29T00:33:07.942Z,7.35
2017-04-29T00:35:37.830Z,8.63
2017-04-29T00:38:06.977Z,7.68
2017-04-29T00:40:36.431Z,7.22
2017-04-29T00:43:05.691Z,7.05
2017-04-29T00:45:34.943Z,7.90
2017-04-29T00:48:04.304Z,7.85
2017-04-29T00:50:33.801Z,7.72
2017-04-29T00:53:02.924Z,8.37
2017-04-29T00:55:32.191Z,7.98
2017-04-29T00:58:01.427Z,7.98
2017-04-29T01:00:30.542Z,8.20
2017-04-29T01:03:03.785Z,8.58
2017-04-29T01:05:33.124Z,9.05
2017-04-29T01:08:02.247Z,8.57
2017-04-29T01:10:32.250Z,7.85
2017-04-29T01:13:01.672Z,10.28
2017-04-29T01:15:31.531Z,8.37
2017-04-29T01:18:00.903Z,8.02
2017-04-29T01:20:30.143Z,8.95
2017-04-29T01:22:59.344Z,8.18
2017-04-29T01:25:28.643Z,9.43
2017-04-29T01:27:58.265Z,9.85
2017-04-29T01:30:27.721Z,8.23
2017-04-29T01:32:57.252Z,9.48
2017-04-29T01:35:27.167Z,9.73
2017-04-29T01:37:56.476Z,9.37
2017-04-29T01:40:26.419Z,9.65
2017-04-29T01:42:55.791Z,9.50
2017-04-29T01:45:25.214Z,9.42
2017-04-29T01:47:55.679Z,10.13
2017-04-29T01:50:25.215Z,9.85
2017-04-29T01:52:54.600Z,9.97
2017-04-29T01:55:24.383Z,9.82
2017-04-29T01:57:53.848Z,11.42
2017-04-29T02:00:23.202Z,10.62
2017-04-29T02:02:52.685Z,11.13
2017-04-29T02:05:21.923Z,12.57
2017-04-29T02:07:51.240Z,9.30
2017-04-29T02:10:20.391Z,11.42
2017-04-29T02:12:49.907Z,12.10
2017-04-29T02:15:19.276Z,12.32
2017-04-29T02:17:48.791Z,10.73
2017-04-29T02:20:19.306Z,11.02
2017-04-29T02:22:48.838Z,12.42
2017-04-29T02:25:19.675Z,11.85
2017-04-29T02:27:50.069Z,11.72
2017-04-29T02:30:19.451Z,13.15
2017-04-29T02:32:48.703Z,12.50
2017-04-29T02:35:18.975Z,11.97
2017-04-29T02:37:48.243Z,14.32
2017-04-29T02:40:17.523Z,13.17
2017-04-29T02:42:46.861Z,11.07
2017-04-29T02:45:16.143Z,12.87
2017-04-29T02:47:45.991Z,12.40
2017-04-29T02:50:15.368Z,12.37
2017-04-29T02:52:45.051Z,11.65
2017-04-29T02:55:14.627Z,13.65
2017-04-29T02:57:44.560Z,11.72
2017-04-29T03:00:13.988Z,12.27
2017-04-29T03:02:44.003Z,11.68
2017-04-29T03:05:13.287Z,12.60
2017-04-29T03:07:42.802Z,11.73
2017-04-29T03:10:12.322Z,13.00
2017-04-29T03:12:41.934Z,13.08
2017-04-29T03:15:11.356Z,13.68
2017-04-29T03:17:40.879Z,12.70
2017-04-29T03:20:10.428Z,11.97
2017-04-29T03:22:40.716Z,12.58
2017-04-29T03:25:10.215Z,11.38
2017-04-29T03:27:44.146Z,15.40
2017-04-29T03:30:14.439Z,12.92
2017-04-29T03:32:43.633Z,11.78
2017-04-29T03:35:13.604Z,12.75
2017-04-29T03:37:42.895Z,10.97
2017-04-29T03:40:12.899Z,12.42
2017-04-29T03:42:42.527Z,11.88
2017-04-29T03:45:11.672Z,13.60
2017-04-29T03:47:40.886Z,13.17
2017-04-29T03:50:10.136Z,14.45
2017-04-29T03:52:40.088Z,12.87
2017-04-29T03:55:09.618Z,13.47
2017-04-29T03:57:39.285Z,13.42
2017-04-29T04:00:08.882Z,12.53
2017-04-29T04:02:39.827Z,14.77
2017-04-29T04:05:09.324Z,13.37
2017-04-29T04:07:39.969Z,13.02
2017-04-29T04:10:10.177Z,12.87
2017-04-29T04:12:41.294Z,13.15
2017-04-29T04:15:11.079Z,14.38
2017-04-29T04:17:42.139Z,15.12
2017-04-29T04:20:16.620Z,14.18
2017-04-29T04:22:47.234Z,16.18
2017-04-29T04:25:18.139Z,14.73
2017-04-29T04:27:48.949Z,18.22
2017-04-29T04:30:23.943Z,15.25
2017-04-29T04:33:02.754Z,17.17
2017-04-29T04:35:34.005Z,14.97
2017-04-29T04:38:04.703Z,15.25
2017-04-29T04:50:26.523Z,16.93
2017-04-29T04:56:20.973Z,18.60
2017-04-29T04:58:54.304Z,21.80
2017-04-29T05:01:31.489Z,18.62
2017-04-29T05:04:15.981Z,18.50
2017-04-29T05:06:46.633Z,18.48
2017-04-29T05:09:15.951Z,20.55
2017-04-29T05:11:50.322Z,16.78
2017-04-29T05:14:20.551Z,18.98
2017-04-29T05:16:52.011Z,18.10
2017-04-29T05:19:21.905Z,16.62
2017-04-29T05:21:51.847Z,17.17
2017-04-29T05:24:21.241Z,20.33
2017-04-29T05:26:51.466Z,17.03
2017-04-29T05:29:21.406Z,16.45
2017-04-29T05:31:50.554Z,17.47
2017-04-29T05:34:19.842Z,18.03
2017-04-29T05:36:49.670Z,18.07
2017-04-29T05:39:21.767Z,18.38
2017-04-29T05:41:51.830Z,23.50
2017-04-29T05:44:20.971Z,23.53
2017-04-29T05:46:50.783Z,19.53
2017-04-29T05:49:19.899Z,19.95
2017-04-29T05:51:48.955Z,21.57
2017-04-29T05:54:18.019Z,22.37
2017-04-29T05:56:47.128Z,22.08
2017-04-29T05:59:16.251Z,24.02
2017-04-29T06:01:45.334Z,22.10
2017-04-29T06:04:14.403Z,25.45
2017-04-29T06:06:43.474Z,21.32
2017-04-29T06:09:12.546Z,24.17
2017-04-29T06:11:42.481Z,22.17
2017-04-29T06:14:11.540Z,22.48
2017-04-29T06:16:40.619Z,22.25
2017-04-29T06:19:09.711Z,23.67
2017-04-29T06:21:38.791Z,23.37
2017-04-29T06:24:07.869Z,22.78
2017-04-29T06:26:36.950Z,24.88
2017-04-29T06:29:15.943Z,24.22
2017-04-29T06:31:45.095Z,23.28
2017-04-29T06:34:14.172Z,24.80
2017-04-29T06:36:43.529Z,23.03
2017-04-29T06:39:12.647Z,23.72
2017-04-29T06:41:41.758Z,26.38
2017-04-29T06:44:13.739Z,23.77
2017-04-29T06:46:42.794Z,24.27
2017-04-29T06:49:11.887Z,24.25
2017-04-29T06:51:40.975Z,23.62
2017-04-29T06:54:10.063Z,27.52
2017-04-29T06:56:39.226Z,23.53
2017-04-29T06:59:11.872Z,26.78
2017-04-29T07:01:40.986Z,23.12
2017-04-29T07:04:10.689Z,21.27
2017-04-29T07:06:40.522Z,24.52
2017-04-29T07:09:09.631Z,22.68
2017-04-29T07:11:42.806Z,24.50
2017-04-29T07:14:11.892Z,22.15
2017-04-29T07:16:40.974Z,21.82
2017-04-29T07:19:10.812Z,21.00
2017-04-29T07:21:39.879Z,24.25
2017-04-29T07:24:09.801Z,19.87
2017-04-29T07:26:38.991Z,21.57
2017-04-29T07:29:08.827Z,21.52
2017-04-29T07:31:37.891Z,20.67
2017-04-29T07:34:07.010Z,24.30
2017-04-29T07:36:36.831Z,21.03
2017-04-29T07:39:07.746Z,21.67
2017-04-29T07:41:36.947Z,22.88
2017-04-29T07:44:06.354Z,20.68
2017-04-29T07:46:35.514Z,20.87
2017-04-29T07:49:05.395Z,20.32
2017-04-29T07:51:35.619Z,18.38
2017-04-29T07:54:05.467Z,20.83
2017-04-29T07:56:35.181Z,18.13
2017-04-29T07:59:04.280Z,16.48
2017-04-29T08:01:33.390Z,19.35
2017-04-29T08:04:02.521Z,16.92
2017-04-29T08:06:37.838Z,16.18
2017-04-29T08:09:07.008Z,20.85
2017-04-29T08:11:36.126Z,19.68
2017-04-29T08:14:05.207Z,17.00
2017-04-29T08:16:34.285Z,14.43
2017-04-29T08:19:03.366Z,14.95
2017-04-29T08:21:32.431Z,12.85
2017-04-29T08:24:01.522Z,12.32
2017-04-29T08:26:31.315Z,8.85
2017-04-29T08:29:00.390Z,12.62
2017-04-29T08:31:29.468Z,8.08
2017-04-29T08:33:58.534Z,7.05
2017-04-29T08:36:27.647Z,6.77
2017-04-29T08:38:56.710Z,5.27
2017-04-29T08:41:25.772Z,5.83
2017-04-29T08:43:54.837Z,4.98
2017-04-29T08:46:25.689Z,7.08
2017-04-29T08:48:54.738Z,6.47
2017-04-29T08:51:24.530Z,7.20
2017-04-29T08:53:53.601Z,6.42
2017-04-29T08:56:22.664Z,5.82
2017-04-29T08:58:51.710Z,6.63
2017-04-29T09:01:20.988Z,6.50
2017-04-29T09:03:50.056Z,6.00
2017-04-29T09:06:19.118Z,8.95
2017-04-29T09:08:50.867Z,7.15
2017-04-29T09:11:19.940Z,10.28
2017-04-29T09:13:48.987Z,7.03
2017-04-29T09:16:18.066Z,7.48
2017-04-29T09:18:47.868Z,7.22
2017-04-29T09:21:16.936Z,7.30
2017-04-29T09:23:46.031Z,7.83
2017-04-29T09:26:15.094Z,8.38
2017-04-29T09:28:44.142Z,6.85
2017-04-29T09:31:13.206Z,7.38
2017-04-29T09:33:42.277Z,9.15
2017-04-29T09:36:11.326Z,7.65
2017-04-29T09:38:40.420Z,6.45
2017-04-29T09:41:09.482Z,6.57
2017-04-29T09:43:38.522Z,7.35
2017-04-29T09:46:08.330Z,8.02
2017-04-29T09:48:37.374Z,6.25
2017-04-29T09:51:06.427Z,7.00
2017-04-29T09:53:36.243Z,6.62
2017-04-29T09:56:06.042Z,7.02
2017-04-29T09:59:01.418Z,5.75
2017-04-29T10:01:30.509Z,7.48
2017-04-29T10:03:59.566Z,5.88
2017-04-29T10:06:29.387Z,6.32
2017-04-29T10:08:58.443Z,4.80
2017-04-29T10:11:27.495Z,6.25
2017-04-29T10:13:56.558Z,6.78
2017-04-29T10:16:25.607Z,6.27
2017-04-29T10:18:54.650Z,5.37
2017-04-29T10:21:24.456Z,8.55
2017-04-29T10:23:54.395Z,5.17
2017-04-29T10:26:23.452Z,7.58
2017-04-29T10:28:52.531Z,8.13
2017-04-29T10:31:21.574Z,5.72
2017-04-29T10:33:50.631Z,7.45
2017-04-29T10:36:19.700Z,6.43
2017-04-29T10:38:48.747Z,6.07
2017-04-29T10:41:17.798Z,6.73
2017-04-29T10:43:46.862Z,7.15
2017-04-29T10:46:15.925Z,6.12
2017-04-29T10:48:45.711Z,7.42
2017-04-29T10:51:14.776Z,8.88
2017-04-29T10:53:48.414Z,6.13
2017-04-29T10:56:17.495Z,5.77
2017-04-29T10:58:46.538Z,6.67
2017-04-29T11:01:15.583Z,6.27
2017-04-29T11:03:44.638Z,5.10
2017-04-29T11:06:13.681Z,5.85
2017-04-29T11:08:43.727Z,6.10
2017-04-29T11:11:13.540Z,5.58
2017-04-29T11:13:43.338Z,8.33
2017-04-29T11:16:12.390Z,8.98
2017-04-29T11:18:41.479Z,5.90
2017-04-29T11:21:10.535Z,7.13
2017-04-29T11:23:40.329Z,4.30
2017-04-29T11:26:09.407Z,4.60
2017-04-29T11:28:41.805Z,6.15
2017-04-29T11:31:10.888Z,7.55
2017-04-29T11:33:39.976Z,5.95
2017-04-29T11:36:09.050Z,4.95
2017-04-29T11:38:38.182Z,5.32
2017-04-29T11:41:07.227Z,5.13
2017-04-29T11:43:36.296Z,4.03
2017-04-29T11:46:07.149Z,5.07
2017-04-29T11:48:36.207Z,5.43
2017-04-29T11:51:05.329Z,4.87
2017-04-29T11:53:34.419Z,4.03
2017-04-29T11:56:03.504Z,4.08
2017-04-29T11:58:32.560Z,4.75
2017-04-29T12:01:01.686Z,4.48
2017-04-29T12:03:30.739Z,4.83
2017-04-29T12:05:59.787Z,5.73
2017-04-29T12:08:28.855Z,4.45
2017-04-29T12:10:57.904Z,4.68
2017-04-29T12:13:26.950Z,4.48
2017-04-29T12:15:56.010Z,4.42
2017-04-29T12:18:25.059Z,6.02
2017-04-29T12:20:54.111Z,4.15
2017-04-29T12:23:23.187Z,4.12
2017-04-29T12:25:52.230Z,4.55
2017-04-29T12:28:21.275Z,5.03
2017-04-29T12:30:50.340Z,5.17
2017-04-29T12:33:19.386Z,6.30
2017-04-29T12:35:48.443Z,5.15
2017-04-29T12:38:18.258Z,3.58
2017-04-29T12:40:47.307Z,4.48
2017-04-29T12:43:16.355Z,3.98
2017-04-29T12:45:45.407Z,4.38
2017-04-29T12:48:14.452Z,5.43
2017-04-29T12:50:43.506Z,4.03
2017-04-29T12:53:12.579Z,5.97
2017-04-29T12:55:41.617Z,6.77
2017-04-29T12:58:11.403Z,4.93
2017-04-29T13:00:40.480Z,4.17
2017-04-29T13:03:09.520Z,4.72
2017-04-29T13:05:39.315Z,5.23
2017-04-29T13:08:08.392Z,3.93
2017-04-29T13:10:37.443Z,4.73
2017-04-29T13:13:06.494Z,9.82
2017-04-29T13:15:35.587Z,5.60
2017-04-29T13:18:04.635Z,5.05
2017-04-29T13:20:33.691Z,6.60
2017-04-29T13:23:02.779Z,6.48
2017-04-29T13:25:31.831Z,3.53
2017-04-29T13:28:00.902Z,6.87
2017-04-29T13:30:31.108Z,6.13
2017-04-29T13:33:00.920Z,7.53
2017-04-29T13:35:30.735Z,5.12
2017-04-29T13:38:00.563Z,4.07
2017-04-29T13:40:29.658Z,4.13
2017-04-29T13:42:58.718Z,4.00
2017-04-29T13:45:27.782Z,5.57
2017-04-29T13:47:56.842Z,4.47
2017-04-29T13:50:25.928Z,5.78
2017-04-29T13:52:55.007Z,4.92
2017-04-29T13:55:24.051Z,4.23
2017-04-29T13:57:53.100Z,5.45
2017-04-29T14:00:22.182Z,6.88
2017-04-29T14:02:51.235Z,3.23
2017-04-29T14:05:20.288Z,3.83
2017-04-29T14:07:50.394Z,4.90
2017-04-29T14:10:19.446Z,4.33
2017-04-29T14:12:48.496Z,5.25
2017-04-29T14:15:17.584Z,5.78
2017-04-29T14:17:46.638Z,4.17
2017-04-29T14:20:15.687Z,4.82
2017-04-29T14:22:45.495Z,5.20
2017-04-29T14:25:15.317Z,6.78
2017-04-29T14:27:44.406Z,6.88
2017-04-29T14:30:14.219Z,5.60
2017-04-29T14:32:44.012Z,4.32
2017-04-29T14:35:13.066Z,3.62
2017-04-29T14:37:42.135Z,6.55
2017-04-29T14:40:11.195Z,4.73
2017-04-29T14:42:40.256Z,3.83
2017-04-29T14:45:09.348Z,4.02
2017-04-29T14:47:38.403Z,5.32
2017-04-29T14:50:08.207Z,3.55
2017-04-29T14:52:37.286Z,6.07
2017-04-29T14:55:06.372Z,3.82
2017-04-29T14:57:36.462Z,4.62
2017-04-29T15:00:05.602Z,7.45
2017-04-29T15:02:34.663Z,6.07
2017-04-29T15:05:03.710Z,4.62
2017-04-29T15:07:33.521Z,10.82
2017-04-29T15:10:03.320Z,4.05
2017-04-29T15:12:32.384Z,3.65
2017-04-29T15:15:01.466Z,5.27
2017-04-29T15:17:30.524Z,3.82
2017-04-29T15:20:00.313Z,6.20
2017-04-29T15:22:29.395Z,7.28
2017-04-29T15:24:58.458Z,3.88
2017-04-29T15:27:27.535Z,3.20
2017-04-29T15:29:57.360Z,4.52
2017-04-29T15:32:26.415Z,3.96
2017-04-29T15:34:55.470Z,4.20
2017-04-29T15:37:24.543Z,4.10
2017-04-29T15:39:52.819Z,4.12
2017-04-29T15:42:21.871Z,4.86
2017-04-29T15:44:51.084Z,6.22
2017-04-29T15:47:20.210Z,3.18
2017-04-29T15:49:49.250Z,3.90
2017-04-29T15:55:19.256Z,2.62
2017-04-29T15:57:49.175Z,3.86
2017-04-29T16:00:21.651Z,2.80
2017-04-29T16:02:53.387Z,2.84
2017-04-29T16:05:22.471Z,4.02
2017-04-29T16:07:51.562Z,3.84
2017-04-29T16:10:20.614Z,5.66
2017-04-29T16:12:49.662Z,4.66
2017-04-29T16:15:18.776Z,7.06
2017-04-29T16:17:48.558Z,3.14
2017-04-29T16:20:17.695Z,2.60
2017-04-29T16:22:46.812Z,6.26
2017-04-29T16:25:15.904Z,4.40
2017-04-29T16:27:44.996Z,8.28
2017-04-29T16:30:14.189Z,7.80
2017-04-29T16:32:43.631Z,7.72
2017-04-29T16:35:12.679Z,5.02
2017-04-29T16:37:42.465Z,4.80
2017-04-29T16:40:11.518Z,3.02
2017-04-29T16:42:40.574Z,3.52
2017-04-29T16:45:10.354Z,4.84
2017-04-29T16:47:39.394Z,2.92
2017-04-29T16:50:09.183Z,2.72
2017-04-29T16:52:42.670Z,3.00
2017-04-29T16:55:11.710Z,4.18
2017-04-29T16:57:40.767Z,3.16
2017-04-29T17:00:09.886Z,3.00
2017-04-29T17:02:39.670Z,2.90
2017-04-29T17:05:08.725Z,5.78
2017-04-29T17:07:37.836Z,3.40
2017-04-29T17:10:06.891Z,3.50
2017-04-29T17:12:35.967Z,3.32
2017-04-29T17:15:05.787Z,5.53
2017-04-29T17:17:38.747Z,3.47
2017-04-29T17:20:07.831Z,6.27
2017-04-29T17:22:36.892Z,3.22
2017-04-29T17:25:05.950Z,3.37
2017-04-29T17:27:35.015Z,4.75
2017-04-29T17:30:04.067Z,7.20
2017-04-29T17:32:33.129Z,3.40
2017-04-29T17:35:02.194Z,6.87
2017-04-29T17:37:31.245Z,3.20
2017-04-29T17:40:00.302Z,2.90
2017-04-29T17:42:29.346Z,3.80
2017-04-29T17:44:58.396Z,4.08
2017-04-29T17:47:27.478Z,3.35
2017-04-29T17:49:56.550Z,3.55
2017-04-29T17:52:25.602Z,3.12
2017-04-29T17:54:55.395Z,6.52
2017-04-29T17:57:24.435Z,3.90
2017-04-29T17:59:53.477Z,4.15
2017-04-29T18:02:22.526Z,3.48
2017-04-29T18:04:51.571Z,5.78
2017-04-29T18:07:20.621Z,4.08
2017-04-29T18:09:49.668Z,8.72
2017-04-29T18:12:18.714Z,3.12
2017-04-29T18:14:47.782Z,4.23
2017-04-29T18:17:17.570Z,4.70
2017-04-29T18:19:46.615Z,3.45
2017-04-29T18:22:15.655Z,3.35
2017-04-29T18:24:44.711Z,5.57
2017-04-29T18:27:13.751Z,3.68
2017-04-29T18:29:42.796Z,4.85
2017-04-29T18:32:11.843Z,3.22
2017-04-29T18:34:41.905Z,4.27
2017-04-29T18:37:11.101Z,3.87
2017-04-29T18:39:40.190Z,4.08
2017-04-29T18:42:09.235Z,4.72
2017-04-29T18:44:38.625Z,4.17
2017-04-29T18:47:08.511Z,4.03
2017-04-29T18:49:37.555Z,4.12
2017-04-29T18:52:06.600Z,4.02
2017-04-29T18:54:35.638Z,3.17
2017-04-29T18:57:04.684Z,5.27
2017-04-29T18:59:33.726Z,6.57
2017-04-29T19:02:02.802Z,4.97
2017-04-29T19:04:31.845Z,5.08
2017-04-29T19:07:00.919Z,6.95
2017-04-29T19:09:29.964Z,4.55
2017-04-29T19:11:59.010Z,4.07
2017-04-29T19:14:28.063Z,4.10
2017-04-29T19:16:57.115Z,5.18
2017-04-29T19:19:26.925Z,3.32
2017-04-29T19:21:55.966Z,3.83
2017-04-29T19:24:25.007Z,5.60
2017-04-29T19:26:54.050Z,6.08
2017-04-29T19:29:23.099Z,4.23
2017-04-29T19:31:52.142Z,8.13
2017-04-29T19:34:21.208Z,6.73
2017-04-29T19:36:51.052Z,4.53
2017-04-29T19:39:20.091Z,5.28
2017-04-29T19:41:49.146Z,6.25
2017-04-29T19:44:18.262Z,5.18
2017-04-29T19:46:47.312Z,5.17
2017-04-29T19:49:16.369Z,4.72
2017-04-29T19:51:45.418Z,3.75
2017-04-29T19:54:15.375Z,4.12
2017-04-29T19:56:44.430Z,6.23
2017-04-29T19:59:13.468Z,5.07
2017-04-29T20:01:42.531Z,3.68
2017-04-29T20:04:11.578Z,5.25
2017-04-29T20:06:40.622Z,4.98
2017-04-29T20:09:09.662Z,6.08
2017-04-29T20:11:38.702Z,4.82
2017-04-29T20:14:07.747Z,4.70
2017-04-29T20:16:36.826Z,6.63
2017-04-29T20:19:05.884Z,4.78
2017-04-29T20:21:34.922Z,5.37
2017-04-29T20:24:03.974Z,8.05
2017-04-29T20:26:33.014Z,4.88
2017-04-29T20:29:02.063Z,5.30
2017-04-29T20:31:31.106Z,8.95
2017-04-29T20:34:00.202Z,6.05
2017-04-29T20:36:29.250Z,4.90
2017-04-29T20:38:59.311Z,5.45
2017-04-29T20:41:28.392Z,5.17
2017-04-29T20:43:57.430Z,5.75
2017-04-29T20:46:27.218Z,7.55
2017-04-29T20:48:56.259Z,4.78
2017-04-29T20:51:25.309Z,5.87
2017-04-29T20:53:54.346Z,5.53
2017-04-29T20:56:23.382Z,5.65
2017-04-29T20:58:52.429Z,5.42
2017-04-29T21:01:21.471Z,5.15
2017-04-29T21:03:50.522Z,6.07
2017-04-29T21:06:19.566Z,4.53
2017-04-29T21:08:48.627Z,5.30
2017-04-29T21:11:17.675Z,4.87
2017-04-29T21:13:47.702Z,7.22
2017-04-29T21:16:17.499Z,6.63
2017-04-29T21:18:46.541Z,4.47
2017-04-29T21:21:15.631Z,4.57
2017-04-29T21:23:44.694Z,7.07
2017-04-29T21:26:14.498Z,5.40
2017-04-29T21:28:43.535Z,5.95
2017-04-29T21:31:12.574Z,5.87
2017-04-29T21:33:41.630Z,7.30
2017-04-29T21:36:10.671Z,6.70
2017-04-29T21:38:39.709Z,5.07
2017-04-29T21:41:09.694Z,6.15
2017-04-29T21:43:38.738Z,5.13
2017-04-29T21:46:07.774Z,7.55
2017-04-29T21:48:36.839Z,6.02
2017-04-29T21:51:05.893Z,6.95
2017-04-29T21:53:35.662Z,7.62
2017-04-29T21:56:04.726Z,6.72
2017-04-29T21:58:33.764Z,7.85
2017-04-29T22:01:02.802Z,6.17
2017-04-29T22:03:31.853Z,5.57
2017-04-29T22:06:00.898Z,6.60
2017-04-29T22:08:29.939Z,6.67
2017-04-29T22:10:59.004Z,7.52
2017-04-29T22:13:28.036Z,6.32
2017-04-29T22:15:57.075Z,6.83
2017-04-29T22:18:26.132Z,7.22
2017-04-29T22:20:55.170Z,8.45
2017-04-29T22:23:24.212Z,6.47
2017-04-29T22:25:53.280Z,5.23
2017-04-29T22:28:22.306Z,6.12
2017-04-29T22:30:51.343Z,6.82
2017-04-29T22:33:20.406Z,5.97
2017-04-29T22:35:49.460Z,5.90
2017-04-29T22:38:18.504Z,8.30
2017-04-29T22:40:48.302Z,11.48
2017-04-29T22:43:17.339Z,6.78
2017-04-29T22:45:46.390Z,5.70
2017-04-29T22:48:15.450Z,6.60
2017-04-29T22:50:44.490Z,6.12
2017-04-29T22:53:13.515Z,7.65
2017-04-29T22:55:42.574Z,6.17
2017-04-29T22:58:11.610Z,8.07
2017-04-29T23:00:40.649Z,7.82
2017-04-29T23:03:09.719Z,6.28
2017-04-29T23:05:38.751Z,11.30
2017-04-29T23:08:07.795Z,6.65
2017-04-29T23:10:36.890Z,7.17
2017-04-29T23:13:05.925Z,7.37
2017-04-29T23:15:34.962Z,8.90
2017-04-29T23:18:04.020Z,6.38
2017-04-29T23:20:33.068Z,7.72
2017-04-29T23:23:02.105Z,11.35
2017-04-29T23:25:31.166Z,6.33
2017-04-29T23:28:00.194Z,6.05
2017-04-29T23:30:29.227Z,6.73
2017-04-29T23:32:58.395Z,6.75
2017-04-29T23:35:27.449Z,6.83
2017-04-29T23:37:56.479Z,5.58
2017-04-29T23:40:25.545Z,7.33
2017-04-29T23:42:54.579Z,9.03
2017-04-29T23:45:23.618Z,6.50
2017-04-29T23:47:52.683Z,6.07
2017-04-29T23:50:21.727Z,6.43
2017-04-29T23:52:50.770Z,5.68
2017-04-29T23:55:19.823Z,10.73
2017-04-29T23:57:48.868Z,5.23
